Fidato — PB5970 — position and weather

sailwx.info

Track history (hours):
 
Tides and Currents Weather Stations Pressure Air Temp Water Temp Dewpoint Dewpoint Depression Visibility Wind Speed Wind Dir Waves Ship Positions

Fidato

Last reported at 2017-Jan-16 21:33 UTC. Time now 2017-Jan-16 21:54 UTC.
Position N 51°53' E 005°30'.

Length 135 m; draft 2.5 m.

Type: Ship. MMSI: 244670975.

Date/timePositionNaut miles runAvg speedWind from/ knotsBaromVisibWave heightAir tempDewpointWater temp
2017-Jan-16 21:33N 51°53' E 005°30'7 6.3
2017-Jan-16 20:28N 51°49' E 005°22'8 6.4
2017-Jan-16 19:17N 51°49' E 005°10'6 7.6
2017-Jan-16 18:33N 51°49' E 005°01'9 9.0
2017-Jan-16 17:33N 51°49' E 004°46'6 5.7
2017-Jan-16 16:33N 51°47' E 004°37'8 7.3
2017-Jan-16 15:27N 51°42' E 004°28'15 4.3
2017-Jan-16 12:03N 51°38' E 004°05'5 8.5
2017-Jan-16 11:26N 51°36' E 003°58'8 8.7
2017-Jan-16 10:33N 51°28' E 004°00'1 1.4
2017-Jan-16 09:30N 51°27' E 004°01'5 5.1
2017-Jan-16 08:32N 51°23' E 003°56'5 5.3
2017-Jan-16 07:33N 51°20' E 003°49'4 3.7
2017-Jan-16 06:33N 51°16' E 003°51'0 0.0
2017-Jan-16 05:33N 51°16' E 003°51'0 0.0
2017-Jan-16 04:33N 51°16' E 003°51'0 0.0
2017-Jan-16 03:33N 51°16' E 003°51'0 0.0
2017-Jan-16 02:33N 51°16' E 003°51'0 0.2
2017-Jan-16 01:33N 51°16' E 003°51'0 0.0
2017-Jan-16 00:33N 51°16' E 003°51'0 0.0
2017-Jan-15 23:33N 51°16' E 003°51'0 0.0
2017-Jan-15 22:33N 51°16' E 003°51'0 0.0
2017-Jan-15 21:29N 51°16' E 003°51'0 0.3
2017-Jan-15 20:33N 51°17' E 003°51'0 0.2
2017-Jan-15 19:32N 51°16' E 003°51'0 0.0
2017-Jan-15 18:33N 51°16' E 003°51'0 0.0
2017-Jan-15 17:33N 51°16' E 003°51'0 0.0
2017-Jan-15 16:33N 51°16' E 003°51'0 0.0
2017-Jan-15 15:33N 51°16' E 003°51'0 0.0
2017-Jan-15 14:33N 51°16' E 003°51'0 0.0
2017-Jan-15 13:33N 51°16' E 003°51'0 0.0
2017-Jan-15 12:33N 51°16' E 003°51'0 0.0
2017-Jan-15 11:33N 51°16' E 003°51'0 0.0
2017-Jan-15 10:33N 51°16' E 003°51'0 0.0
2017-Jan-15 09:33N 51°16' E 003°51'0 0.0
2017-Jan-15 08:33N 51°16' E 003°51'0 0.0
2017-Jan-15 07:33N 51°16' E 003°51'0 0.0
2017-Jan-15 06:33N 51°16' E 003°51'0 0.0
2017-Jan-15 05:33N 51°16' E 003°51'0 0.0
2017-Jan-15 04:33N 51°16' E 003°51'0 0.0
2017-Jan-15 03:33N 51°16' E 003°51'0 0.0
2017-Jan-15 02:33N 51°16' E 003°51'0 0.0
2017-Jan-15 01:33N 51°16' E 003°51'0 0.0
2017-Jan-15 00:33N 51°16' E 003°51'0 0.0
2017-Jan-14 23:33N 51°16' E 003°51'0 0.0
2017-Jan-14 22:33N 51°16' E 003°51'0 0.0
2017-Jan-14 21:33N 51°16' E 003°51'0 0.0
2017-Jan-14 20:33N 51°16' E 003°51'0 0.0
2017-Jan-14 19:33N 51°16' E 003°51'0 0.0
2017-Jan-14 18:33N 51°16' E 003°51'0 0.0
2017-Jan-14 17:33N 51°16' E 003°51'0 0.0
2017-Jan-14 16:33N 51°16' E 003°51'0 0.0
2017-Jan-14 15:33N 51°16' E 003°51'0 0.0
2017-Jan-14 14:33N 51°16' E 003°51'0 0.0
2017-Jan-14 13:33N 51°16' E 003°51'0 0.0
2017-Jan-14 12:33N 51°16' E 003°51'0 0.0
2017-Jan-14 11:33N 51°16' E 003°51'0 0.0
2017-Jan-14 10:33N 51°16' E 003°51'0 0.0
2017-Jan-14 09:33N 51°16' E 003°51'0 0.0
2017-Jan-14 08:33N 51°16' E 003°51'0 0.0
2017-Jan-14 07:33N 51°16' E 003°51'0 0.0
2017-Jan-14 06:33N 51°16' E 003°51'0 0.0
2017-Jan-14 05:33N 51°16' E 003°51'0 0.0
2017-Jan-14 04:33N 51°16' E 003°51'0 0.0
2017-Jan-14 03:33N 51°16' E 003°51'0 0.0
2017-Jan-13 23:33N 51°16' E 003°51'0 0.0
2017-Jan-13 22:34N 51°16' E 003°51'0 0.0
2017-Jan-13 21:33N 51°16' E 003°51'0 0.0
2017-Jan-13 20:34N 51°16' E 003°51'0 0.0
2017-Jan-13 19:33N 51°16' E 003°51'0 0.0
2017-Jan-13 18:33N 51°16' E 003°51'0 0.0
2017-Jan-13 17:33N 51°16' E 003°51'0 0.0
2017-Jan-13 16:33N 51°16' E 003°51'0 0.0
2017-Jan-13 15:32N 51°16' E 003°51'0 0.0
2017-Jan-13 14:33N 51°16' E 003°51'0 0.0
2017-Jan-13 13:34N 51°16' E 003°51'0 0.0
2017-Jan-13 12:33N 51°16' E 003°51'0 0.0
2017-Jan-13 11:34N 51°16' E 003°51'0 0.0
2017-Jan-13 10:34N 51°16' E 003°51'0 0.0
2017-Jan-13 09:33N 51°16' E 003°51'0 0.0
2017-Jan-13 08:33N 51°16' E 003°51'0 0.0
2017-Jan-13 07:33N 51°16' E 003°51'0 0.0
2017-Jan-13 06:32N 51°16' E 003°51'0 0.0
2017-Jan-13 05:33N 51°16' E 003°51'0 0.0
2017-Jan-13 04:34N 51°16' E 003°51'4 3.9
2017-Jan-13 03:33N 51°20' E 003°49'8 8.0
2017-Jan-13 02:33N 51°26' E 003°58'6 6.2
2017-Jan-13 01:33N 51°22' E 004°06'5 4.2
2017-Jan-13 00:29N 51°22' E 004°14'2 2.3
2017-Jan-12 23:24N 51°20' E 004°17'0 0.1
2017-Jan-12 22:32N 51°20' E 004°17'2 2.3
2017-Jan-12 21:32N 51°18' E 004°16'0 0.0
2017-Jan-12 20:33N 51°18' E 004°16'1 1.0
2017-Jan-12 19:33N 51°18' E 004°18'0 0.0
2017-Jan-12 18:33N 51°18' E 004°18'0 0.0
2017-Jan-12 17:33N 51°18' E 004°18'0 0.0
2017-Jan-12 16:33N 51°18' E 004°18'0 0.0
2017-Jan-12 15:33N 51°18' E 004°18'0 0.0
2017-Jan-12 14:33N 51°18' E 004°18'25 4.1
2017-Jan-12 08:31N 51°42' E 004°27'7 7.5
2017-Jan-12 07:33N 51°43' E 004°39'8 7.9
2017-Jan-12 06:33N 51°48' E 004°49'2 2.2
2017-Jan-12 05:33N 51°49' E 004°52'0 0.0
2017-Jan-12 04:33N 51°49' E 004°52'0 0.0
2017-Jan-12 03:33N 51°49' E 004°52'0 0.0
2017-Jan-12 02:33N 51°49' E 004°52'0 0.0
2017-Jan-12 01:33N 51°49' E 004°52'0 0.0
2017-Jan-12 00:33N 51°49' E 004°52'0 0.0
2017-Jan-11 23:33N 51°49' E 004°52'0 0.0
2017-Jan-11 22:33N 51°49' E 004°52'4 4.3
2017-Jan-11 21:33N 51°49' E 004°59'8 8.3
2017-Jan-11 20:32N 51°49' E 005°13'15 7.5
2017-Jan-11 18:33N 51°54' E 005°35'9 8.8
2017-Jan-11 17:33N 51°52' E 005°49'7 6.6
2017-Jan-11 16:33N 51°53' E 005°60'9 8.9
2017-Jan-11 15:33N 51°50' E 006°14'8 8.0
2017-Jan-11 14:33N 51°45' E 006°24'7 7.4
2017-Jan-11 13:33N 51°40' E 006°32'7 6.3
2017-Jan-11 12:31N 51°35' E 006°39'39 2.9
2017-Jan-10 23:13N 50°58' E 006°60'5 6.4
2017-Jan-10 22:29N 50°54' E 007°03'6 6.6
2017-Jan-10 21:31N 50°47' E 007°02'99 6.5
2017-Jan-10 06:08N 49°25' E 008°30'5 8.0
2017-Jan-10 05:33N 49°21' E 008°29'6 6.1
2017-Jan-10 04:34N 49°15' E 008°25'2 1.8
2017-Jan-10 03:34N 49°14' E 008°23'0 0.0
2017-Jan-10 02:34N 49°14' E 008°23'0 0.0
2017-Jan-10 01:33N 49°14' E 008°23'0 0.0
2017-Jan-10 00:34N 49°14' E 008°23'0 0.0
2017-Jan-09 23:34N 49°14' E 008°23'0 0.0
2017-Jan-09 22:33N 49°14' E 008°23'0 0.0
2017-Jan-09 21:34N 49°14' E 008°23'0 0.0
2017-Jan-09 20:33N 49°14' E 008°23'0 0.0
2017-Jan-09 19:33N 49°14' E 008°23'0 0.0
2017-Jan-09 18:32N 49°14' E 008°23'0 0.0
2017-Jan-09 17:33N 49°14' E 008°23'0 0.0
2017-Jan-09 16:33N 49°14' E 008°23'0 0.0
2017-Jan-09 15:33N 49°14' E 008°23'0 0.0
2017-Jan-09 14:34N 49°14' E 008°23'0 0.0
2017-Jan-09 13:33N 49°14' E 008°23'0 0.1
2017-Jan-09 12:34N 49°14' E 008°23'1 0.6
2017-Jan-09 11:34N 49°14' E 008°24'4 3.7
2017-Jan-09 10:33N 49°17' E 008°28'3 3.3
2017-Jan-09 09:33N 49°20' E 008°28'  
Track history (hours):
 
Tides and Currents Weather Stations Pressure Air Temp Water Temp Dewpoint Dewpoint Depression Visibility Wind Speed Wind Dir Waves Ship Positions

Fidato

Last reported at 2017-Jan-16 21:33 UTC. Time now 2017-Jan-16 21:54 UTC.
Position N 51°53' E 005°30'.

Length 135 m; draft 2.5 m.

Type: Ship. MMSI: 244670975.

Date/timePositionNaut miles runAvg speedWind from/ knotsBaromVisibWave heightAir tempDewpointWater temp
2017-Jan-16 21:33N 51°53' E 005°30'7 6.3
2017-Jan-16 20:28N 51°49' E 005°22'8 6.4
2017-Jan-16 19:17N 51°49' E 005°10'6 7.6
2017-Jan-16 18:33N 51°49' E 005°01'9 9.0
2017-Jan-16 17:33N 51°49' E 004°46'6 5.7
2017-Jan-16 16:33N 51°47' E 004°37'8 7.3
2017-Jan-16 15:27N 51°42' E 004°28'15 4.3
2017-Jan-16 12:03N 51°38' E 004°05'5 8.5
2017-Jan-16 11:26N 51°36' E 003°58'8 8.7
2017-Jan-16 10:33N 51°28' E 004°00'1 1.4
2017-Jan-16 09:30N 51°27' E 004°01'5 5.1
2017-Jan-16 08:32N 51°23' E 003°56'5 5.3
2017-Jan-16 07:33N 51°20' E 003°49'4 3.7
2017-Jan-16 06:33N 51°16' E 003°51'0 0.0
2017-Jan-16 05:33N 51°16' E 003°51'0 0.0
2017-Jan-16 04:33N 51°16' E 003°51'0 0.0
2017-Jan-16 03:33N 51°16' E 003°51'0 0.0
2017-Jan-16 02:33N 51°16' E 003°51'0 0.2
2017-Jan-16 01:33N 51°16' E 003°51'0 0.0
2017-Jan-16 00:33N 51°16' E 003°51'0 0.0
2017-Jan-15 23:33N 51°16' E 003°51'0 0.0
2017-Jan-15 22:33N 51°16' E 003°51'0 0.0
2017-Jan-15 21:29N 51°16' E 003°51'0 0.3
2017-Jan-15 20:33N 51°17' E 003°51'0 0.2
2017-Jan-15 19:32N 51°16' E 003°51'0 0.0
2017-Jan-15 18:33N 51°16' E 003°51'0 0.0
2017-Jan-15 17:33N 51°16' E 003°51'0 0.0
2017-Jan-15 16:33N 51°16' E 003°51'0 0.0
2017-Jan-15 15:33N 51°16' E 003°51'0 0.0
2017-Jan-15 14:33N 51°16' E 003°51'0 0.0
2017-Jan-15 13:33N 51°16' E 003°51'0 0.0
2017-Jan-15 12:33N 51°16' E 003°51'0 0.0
2017-Jan-15 11:33N 51°16' E 003°51'0 0.0
2017-Jan-15 10:33N 51°16' E 003°51'0 0.0
2017-Jan-15 09:33N 51°16' E 003°51'0 0.0
2017-Jan-15 08:33N 51°16' E 003°51'0 0.0
2017-Jan-15 07:33N 51°16' E 003°51'0 0.0
2017-Jan-15 06:33N 51°16' E 003°51'0 0.0
2017-Jan-15 05:33N 51°16' E 003°51'0 0.0
2017-Jan-15 04:33N 51°16' E 003°51'0 0.0
2017-Jan-15 03:33N 51°16' E 003°51'0 0.0
2017-Jan-15 02:33N 51°16' E 003°51'0 0.0
2017-Jan-15 01:33N 51°16' E 003°51'0 0.0
2017-Jan-15 00:33N 51°16' E 003°51'0 0.0
2017-Jan-14 23:33N 51°16' E 003°51'0 0.0
2017-Jan-14 22:33N 51°16' E 003°51'0 0.0
2017-Jan-14 21:33N 51°16' E 003°51'0 0.0
2017-Jan-14 20:33N 51°16' E 003°51'0 0.0
2017-Jan-14 19:33N 51°16' E 003°51'0 0.0
2017-Jan-14 18:33N 51°16' E 003°51'0 0.0
2017-Jan-14 17:33N 51°16' E 003°51'0 0.0
2017-Jan-14 16:33N 51°16' E 003°51'0 0.0
2017-Jan-14 15:33N 51°16' E 003°51'0 0.0
2017-Jan-14 14:33N 51°16' E 003°51'0 0.0
2017-Jan-14 13:33N 51°16' E 003°51'0 0.0
2017-Jan-14 12:33N 51°16' E 003°51'0 0.0
2017-Jan-14 11:33N 51°16' E 003°51'0 0.0
2017-Jan-14 10:33N 51°16' E 003°51'0 0.0
2017-Jan-14 09:33N 51°16' E 003°51'0 0.0
2017-Jan-14 08:33N 51°16' E 003°51'0 0.0
2017-Jan-14 07:33N 51°16' E 003°51'0 0.0
2017-Jan-14 06:33N 51°16' E 003°51'0 0.0
2017-Jan-14 05:33N 51°16' E 003°51'0 0.0
2017-Jan-14 04:33N 51°16' E 003°51'0 0.0
2017-Jan-14 03:33N 51°16' E 003°51'0 0.0
2017-Jan-13 23:33N 51°16' E 003°51'0 0.0
2017-Jan-13 22:34N 51°16' E 003°51'0 0.0
2017-Jan-13 21:33N 51°16' E 003°51'0 0.0
2017-Jan-13 20:34N 51°16' E 003°51'0 0.0
2017-Jan-13 19:33N 51°16' E 003°51'0 0.0
2017-Jan-13 18:33N 51°16' E 003°51'0 0.0
2017-Jan-13 17:33N 51°16' E 003°51'0 0.0
2017-Jan-13 16:33N 51°16' E 003°51'0 0.0
2017-Jan-13 15:32N 51°16' E 003°51'0 0.0
2017-Jan-13 14:33N 51°16' E 003°51'0 0.0
2017-Jan-13 13:34N 51°16' E 003°51'0 0.0
2017-Jan-13 12:33N 51°16' E 003°51'0 0.0
2017-Jan-13 11:34N 51°16' E 003°51'0 0.0
2017-Jan-13 10:34N 51°16' E 003°51'0 0.0
2017-Jan-13 09:33N 51°16' E 003°51'0 0.0
2017-Jan-13 08:33N 51°16' E 003°51'0 0.0
2017-Jan-13 07:33N 51°16' E 003°51'0 0.0
2017-Jan-13 06:32N 51°16' E 003°51'0 0.0
2017-Jan-13 05:33N 51°16' E 003°51'0 0.0
2017-Jan-13 04:34N 51°16' E 003°51'4 3.9
2017-Jan-13 03:33N 51°20' E 003°49'8 8.0
2017-Jan-13 02:33N 51°26' E 003°58'6 6.2
2017-Jan-13 01:33N 51°22' E 004°06'5 4.2
2017-Jan-13 00:29N 51°22' E 004°14'2 2.3
2017-Jan-12 23:24N 51°20' E 004°17'0 0.1
2017-Jan-12 22:32N 51°20' E 004°17'2 2.3
2017-Jan-12 21:32N 51°18' E 004°16'0 0.0
2017-Jan-12 20:33N 51°18' E 004°16'1 1.0
2017-Jan-12 19:33N 51°18' E 004°18'0 0.0
2017-Jan-12 18:33N 51°18' E 004°18'0 0.0
2017-Jan-12 17:33N 51°18' E 004°18'0 0.0
2017-Jan-12 16:33N 51°18' E 004°18'0 0.0
2017-Jan-12 15:33N 51°18' E 004°18'0 0.0
2017-Jan-12 14:33N 51°18' E 004°18'25 4.1
2017-Jan-12 08:31N 51°42' E 004°27'7 7.5
2017-Jan-12 07:33N 51°43' E 004°39'8 7.9
2017-Jan-12 06:33N 51°48' E 004°49'2 2.2
2017-Jan-12 05:33N 51°49' E 004°52'0 0.0
2017-Jan-12 04:33N 51°49' E 004°52'0 0.0
2017-Jan-12 03:33N 51°49' E 004°52'0 0.0
2017-Jan-12 02:33N 51°49' E 004°52'0 0.0
2017-Jan-12 01:33N 51°49' E 004°52'0 0.0
2017-Jan-12 00:33N 51°49' E 004°52'0 0.0
2017-Jan-11 23:33N 51°49' E 004°52'0 0.0
2017-Jan-11 22:33N 51°49' E 004°52'4 4.3
2017-Jan-11 21:33N 51°49' E 004°59'8 8.3
2017-Jan-11 20:32N 51°49' E 005°13'15 7.5
2017-Jan-11 18:33N 51°54' E 005°35'9 8.8
2017-Jan-11 17:33N 51°52' E 005°49'7 6.6
2017-Jan-11 16:33N 51°53' E 005°60'9 8.9
2017-Jan-11 15:33N 51°50' E 006°14'8 8.0
2017-Jan-11 14:33N 51°45' E 006°24'7 7.4
2017-Jan-11 13:33N 51°40' E 006°32'7 6.3
2017-Jan-11 12:31N 51°35' E 006°39'39 2.9
2017-Jan-10 23:13N 50°58' E 006°60'5 6.4
2017-Jan-10 22:29N 50°54' E 007°03'6 6.6
2017-Jan-10 21:31N 50°47' E 007°02'99 6.5
2017-Jan-10 06:08N 49°25' E 008°30'5 8.0
2017-Jan-10 05:33N 49°21' E 008°29'6 6.1
2017-Jan-10 04:34N 49°15' E 008°25'2 1.8
2017-Jan-10 03:34N 49°14' E 008°23'0 0.0
2017-Jan-10 02:34N 49°14' E 008°23'0 0.0
2017-Jan-10 01:33N 49°14' E 008°23'0 0.0
2017-Jan-10 00:34N 49°14' E 008°23'0 0.0
2017-Jan-09 23:34N 49°14' E 008°23'0 0.0
2017-Jan-09 22:33N 49°14' E 008°23'0 0.0
2017-Jan-09 21:34N 49°14' E 008°23'0 0.0
2017-Jan-09 20:33N 49°14' E 008°23'0 0.0
2017-Jan-09 19:33N 49°14' E 008°23'0 0.0
2017-Jan-09 18:32N 49°14' E 008°23'0 0.0
2017-Jan-09 17:33N 49°14' E 008°23'0 0.0
2017-Jan-09 16:33N 49°14' E 008°23'0 0.0
2017-Jan-09 15:33N 49°14' E 008°23'0 0.0
2017-Jan-09 14:34N 49°14' E 008°23'0 0.0
2017-Jan-09 13:33N 49°14' E 008°23'0 0.1
2017-Jan-09 12:34N 49°14' E 008°23'1 0.6
2017-Jan-09 11:34N 49°14' E 008°24'4 3.7
2017-Jan-09 10:33N 49°17' E 008°28'3 3.3
2017-Jan-09 09:33N 49°20' E 008°28'  

Dump ship's entire track history